Time;durP1;ratioP1;P1;durP2;ratioP2;P2;SDS_P1;SDS_P2;PMS_P1;PMS_P2;Temp;Humidity;BMP_temperature;BMP_pressure;BME280_temperature;BME280_humidity;BME280_pressure;Samples;Min_cycle;Max_cycle;Signal;HPM_P1;HPM_P2
2021/11/25 00:00:38;;;;;;;17.40;7.72;;;;;;;5.02;47.35;101338.41;5018700;28;20045;-92
2021/11/25 00:03:05;;;;;;;15.35;7.20;;;;;;;4.78;47.99;101335.13;5000918;28;20038;-92
2021/11/25 00:05:31;;;;;;;18.75;8.38;;;;;;;4.90;47.86;101338.53;4990542;28;20049;-91
2021/11/25 00:07:57;;;;;;;20.52;8.35;;;;;;;5.05;47.36;101328.03;5002532;28;20054;-91
2021/11/25 00:10:23;;;;;;;22.63;9.07;;;;;;;5.03;47.90;101324.59;5001335;28;20211;-91
2021/11/25 00:12:55;;;;;;;17.40;8.40;;;;;;;5.10;47.53;101322.78;5007419;28;20045;-91
2021/11/25 00:15:20;;;;;;;;;;;;;;;4.97;47.94;101317.75;5000596;28;20527;-91
2021/11/25 00:17:47;;;;;;;23.48;9.15;;;;;;;4.63;48.66;101311.94;4992301;28;20052;-92
2021/11/25 00:20:14;;;;;;;17.75;8.45;;;;;;;5.00;47.75;101301.31;5018871;28;20026;-92
2021/11/25 00:22:41;;;;;;;24.48;10.20;;;;;;;4.91;48.16;101304.00;4985457;28;20459;-91
2021/11/25 00:25:08;;;;;;;22.75;10.70;;;;;;;4.08;49.83;101296.84;5006494;28;20027;-91
2021/11/25 00:27:35;;;;;;;18.92;9.05;;;;;;;4.64;48.81;101287.78;5004195;28;20128;-91
2021/11/25 00:30:01;;;;;;;22.90;9.93;;;;;;;4.48;49.11;101291.38;4988766;28;20390;-91
2021/11/25 00:32:27;;;;;;;26.50;10.98;;;;;;;4.49;49.17;101290.50;5002779;28;20050;-91
2021/11/25 00:34:52;;;;;;;22.55;10.15;;;;;;;4.45;49.52;101293.97;5000689;28;20033;-90
2021/11/25 00:37:18;;;;;;;27.42;11.18;;;;;;;4.28;49.70;101292.38;4996884;28;20052;-89
2021/11/25 00:39:43;;;;;;;23.48;10.77;;;;;;;4.46;49.41;101277.59;4994380;28;20043;-90
2021/11/25 00:42:11;;;;;;;26.40;12.63;;;;;;;4.71;48.77;101278.25;4994496;28;20143;-93
2021/11/25 00:44:37;;;;;;;28.88;12.02;;;;;;;4.68;48.54;101279.13;5023127;28;20498;-92
2021/11/25 00:47:02;;;;;;;29.88;13.35;;;;;;;4.07;49.81;101277.00;5015633;28;20061;-90
2021/11/25 00:49:28;;;;;;;24.40;12.18;;;;;;;4.58;48.71;101270.56;5027510;28;20033;-90
2021/11/25 00:51:54;;;;;;;25.40;12.85;;;;;;;4.58;48.56;101264.53;4991014;28;20046;-92
2021/11/25 00:54:19;;;;;;;24.50;12.50;;;;;;;4.51;48.85;101260.28;5010260;28;20029;-90
2021/11/25 00:56:45;;;;;;;28.13;13.60;;;;;;;4.86;48.12;101257.38;5021966;28;20489;-92
2021/11/25 00:59:11;;;;;;;28.75;13.40;;;;;;;4.96;47.63;101253.84;5004031;28;20084;-90
2021/11/25 01:01:37;;;;;;;27.85;12.50;;;;;;;4.54;48.68;101257.66;5003172;28;20060;-91
2021/11/25 01:04:04;;;;;;;29.13;13.73;;;;;;;4.48;48.89;101258.59;5006567;28;20504;-90
2021/11/25 01:06:30;;;;;;;31.98;13.40;;;;;;;4.30;48.87;101254.41;5027205;28;20037;-91
2021/11/25 01:08:56;;;;;;;27.38;13.00;;;;;;;4.70;48.19;101251.50;5010493;28;20632;-91
2021/11/25 01:11:25;;;;;;;31.67;14.50;;;;;;;4.67;48.21;101248.91;5033844;28;20045;-90
2021/11/25 01:13:53;;;;;;;30.27;14.90;;;;;;;4.61;48.28;101249.00;5005697;28;20421;-89
2021/11/25 01:16:21;;;;;;;29.63;14.13;;;;;;;4.67;48.44;101245.47;5020698;28;20080;-89
2021/11/25 01:18:47;;;;;;;33.25;15.32;;;;;;;4.46;48.79;101247.38;5001133;28;20038;-90
2021/11/25 01:21:13;;;;;;;30.65;14.00;;;;;;;4.82;47.96;101240.16;5017711;28;20030;-92
2021/11/25 01:23:39;;;;;;;31.02;14.25;;;;;;;4.75;48.21;101235.91;5003643;28;20042;-95
2021/11/25 01:26:05;;;;;;;37.60;15.18;;;;;;;4.41;48.78;101244.84;5003606;28;20106;-93
2021/11/25 01:28:31;;;;;;;32.65;14.27;;;;;;;4.45;49.35;101229.28;5022156;28;20025;-93
2021/11/25 01:31:00;;;;;;;30.35;15.10;;;;;;;4.66;48.38;101228.25;5015201;28;20603;-92
2021/11/25 01:33:31;;;;;;;31.52;14.77;;;;;;;4.34;49.44;101232.84;5005879;28;20662;-92
2021/11/25 01:35:57;;;;;;;35.22;14.80;;;;;;;4.42;49.25;101225.84;5009918;28;20505;-93
2021/11/25 01:38:24;;;;;;;34.03;15.15;;;;;;;4.57;48.41;101224.00;4980539;28;20133;-91
2021/11/25 01:40:50;;;;;;;34.83;15.55;;;;;;;4.54;49.06;101218.84;4992952;28;20057;-92
2021/11/25 01:43:22;;;;;;;31.23;14.82;;;;;;;4.60;48.84;101218.78;4988762;28;20502;-93
2021/11/25 01:45:49;;;;;;;31.40;14.60;;;;;;;4.49;49.50;101218.03;4989456;28;20038;-93
2021/11/25 01:48:16;;;;;;;36.08;15.48;;;;;;;4.49;48.96;101210.25;5011640;28;20061;-94
2021/11/25 01:50:44;;;;;;;33.90;14.98;;;;;;;4.48;49.25;101204.22;5013899;28;20053;-92
2021/11/25 01:53:11;;;;;;;33.67;14.88;;;;;;;3.88;50.87;101214.19;4990200;28;20160;-90
2021/11/25 01:55:38;;;;;;;37.63;16.95;;;;;;;4.18;50.41;101210.50;5012035;28;20128;-89
2021/11/25 01:58:03;;;;;;;35.20;15.15;;;;;;;4.46;49.70;101205.13;5002318;28;20030;-91
2021/11/25 02:00:47;;;;;;;45.47;17.98;;;;;;;4.34;50.10;101201.78;5025506;28;20052;-88
2021/11/25 02:03:13;;;;;;;41.20;17.98;;;;;;;4.51;49.82;101203.34;4990653;28;20108;-91
2021/11/25 02:05:39;;;;;;;36.72;17.23;;;;;;;4.52;49.51;101199.88;5024981;28;20056;-91
2021/11/25 02:08:05;;;;;;;36.08;15.35;;;;;;;4.73;48.81;101199.66;5001870;28;20038;-92
2021/11/25 02:10:32;;;;;;;38.38;16.25;;;;;;;4.45;49.70;101199.06;4995319;28;20033;-90
2021/11/25 02:12:58;;;;;;;35.42;17.20;;;;;;;4.86;48.67;101192.63;4989457;28;20045;-91
2021/11/25 02:15:25;;;;;;;37.50;17.65;;;;;;;4.91;48.54;101198.63;4995203;28;20116;-90
2021/11/25 02:17:51;;;;;;;36.92;16.02;;;;;;;4.87;48.65;101183.97;5000505;28;20053;-89
2021/11/25 02:20:17;;;;;;;37.83;17.27;;;;;;;4.51;49.60;101180.03;5006476;28;20032;-91
2021/11/25 02:22:44;;;;;;;36.63;16.75;;;;;;;4.18;50.40;101169.13;5005538;28;20245;-93
2021/11/25 02:25:12;;;;;;;38.08;17.33;;;;;;;4.41;50.23;101162.03;5011527;28;20030;-91
2021/11/25 02:27:40;;;;;;;38.60;18.55;;;;;;;4.57;49.55;101167.03;5007821;28;20057;-90
2021/11/25 02:30:09;;;;;;;37.47;17.60;;;;;;;4.45;49.66;101162.81;4993308;28;20121;-93
2021/11/25 02:32:40;;;;;;;38.15;16.58;;;;;;;4.52;49.61;101153.28;4985241;28;20422;-92
2021/11/25 02:35:10;;;;;;;33.53;16.23;;;;;;;4.88;49.09;101158.94;5001761;28;20030;-91
2021/11/25 02:37:36;;;;;;;41.00;18.25;;;;;;;4.61;49.09;101153.19;5019326;28;20049;-93
2021/11/25 02:40:20;;;;;;;38.88;17.88;;;;;;;4.75;49.01;101153.91;4991584;28;20416;-91
2021/11/25 02:42:50;;;;;;;43.65;19.25;;;;;;;4.51;49.79;101148.97;4988145;28;20050;-92
2021/11/25 02:45:16;;;;;;;40.25;17.75;;;;;;;4.52;50.01;101138.63;4986596;28;20548;-94
2021/11/25 02:47:42;;;;;;;41.90;17.70;;;;;;;4.86;48.67;101142.56;5000664;28;20107;-93
2021/11/25 02:50:08;;;;;;;38.85;16.67;;;;;;;4.80;49.54;101133.97;4992711;28;20132;-94
2021/11/25 02:52:40;;;;;;;43.70;19.10;;;;;;;4.44;49.83;101130.06;5002799;28;20116;-94
2021/11/25 02:55:06;;;;;;;38.95;18.17;;;;;;;4.69;49.56;101127.22;5017824;28;20478;-92
2021/11/25 02:57:36;;;;;;;40.88;18.70;;;;;;;4.73;48.99;101115.94;4998883;28;20030;-93
2021/11/25 03:00:06;;;;;;;39.97;19.90;;;;;;;4.80;49.00;101113.25;5000331;28;20494;-90
2021/11/25 03:02:32;;;;;;;42.05;17.48;;;;;;;4.67;48.99;101122.03;5011092;28;20466;-92
2021/11/25 03:04:58;;;;;;;43.42;20.70;;;;;;;4.70;48.79;101116.84;4990878;28;20123;-90
2021/11/25 03:07:23;;;;;;;43.80;20.35;;;;;;;4.62;48.94;101118.66;4985836;28;20483;-90
2021/11/25 03:09:49;;;;;;;43.58;19.20;;;;;;;4.71;49.21;101108.19;5005745;28;20117;-90
2021/11/25 03:12:15;;;;;;;41.55;17.58;;;;;;;4.75;49.14;101109.88;4987148;28;20049;-92
2021/11/25 03:14:40;;;;;;;47.30;19.63;;;;;;;4.55;49.71;101102.34;4996151;28;20467;-93
2021/11/25 03:17:06;;;;;;;40.17;18.92;;;;;;;3.55;52.38;101103.25;4990231;28;20048;-90
2021/11/25 03:19:32;;;;;;;39.05;18.38;;;;;;;4.10;51.05;101090.75;4991254;28;20606;-91
2021/11/25 03:21:58;;;;;;;40.95;19.15;;;;;;;4.19;50.96;101098.41;5002986;28;20038;-91
2021/11/25 03:24:23;;;;;;;43.33;19.60;;;;;;;4.49;49.98;101097.22;5019822;28;20402;-90
2021/11/25 03:26:49;;;;;;;40.80;19.58;;;;;;;4.45;50.52;101107.63;5000190;28;20045;-92
2021/11/25 03:29:15;;;;;;;40.17;19.92;;;;;;;4.64;49.77;101096.19;5010302;28;20021;-90
2021/11/25 03:31:42;;;;;;;46.60;20.15;;;;;;;4.22;50.96;101098.38;4990378;28;20033;-91
2021/11/25 03:34:08;;;;;;;43.83;19.13;;;;;;;4.45;50.45;101094.69;5008127;28;20145;-91
2021/11/25 03:36:34;;;;;;;51.20;21.15;;;;;;;4.55;50.69;101101.50;4989379;28;20450;-88
2021/11/25 03:39:00;;;;;;;47.15;21.13;;;;;;;4.70;50.28;101098.72;5019143;28;20045;-90
2021/11/25 03:41:26;;;;;;;47.42;19.90;;;;;;;4.09;51.66;101101.94;4993392;28;20038;-89
2021/11/25 03:43:53;;;;;;;51.20;20.60;;;;;;;3.83;52.26;101089.22;5007340;28;20140;-91
2021/11/25 03:46:19;;;;;;;45.00;19.40;;;;;;;4.56;50.87;101088.50;5010662;28;20026;-90
2021/11/25 03:48:44;;;;;;;49.72;20.38;;;;;;;4.52;50.99;101088.56;5015908;28;20073;-91
2021/11/25 03:51:12;;;;;;;57.63;21.83;;;;;;;4.50;51.08;101085.13;4997960;28;20030;-89
2021/11/25 03:53:43;;;;;;;42.55;20.48;;;;;;;4.39;51.51;101083.53;5024963;28;20050;-89
2021/11/25 03:56:09;;;;;;;44.90;20.05;;;;;;;4.24;51.98;101077.66;5018443;28;20033;-90
2021/11/25 03:58:35;;;;;;;50.80;19.95;;;;;;;4.29;51.59;101070.69;4997467;28;20029;-91
2021/11/25 04:01:00;;;;;;;45.92;20.17;;;;;;;4.20;52.04;101074.25;5015418;28;20030;-90
2021/11/25 04:03:26;;;;;;;46.60;18.90;;;;;;;3.62;53.27;101065.28;5017086;28;20056;-91
2021/11/25 04:05:53;;;;;;;43.83;19.83;;;;;;;4.22;52.29;101059.56;5024508;28;20083;-89
2021/11/25 04:08:21;;;;;;;45.25;19.77;;;;;;;4.41;51.49;101063.66;5008411;28;20030;-92
2021/11/25 04:10:47;;;;;;;43.75;19.75;;;;;;;4.08;52.36;101066.63;5012428;28;20120;-90
2021/11/25 04:13:13;;;;;;;49.13;18.85;;;;;;;3.29;54.84;101056.03;5020481;28;20176;-89
2021/11/25 04:15:39;;;;;;;47.15;21.70;;;;;;;3.70;53.80;101052.31;5014817;28;20317;-90
2021/11/25 04:18:05;;;;;;;49.13;19.58;;;;;;;3.85;53.59;101049.59;5017114;28;20038;-91
2021/11/25 04:20:31;;;;;;;46.88;20.38;;;;;;;3.98;53.29;101032.22;4998088;28;20021;-89
2021/11/25 04:22:58;;;;;;;45.90;19.42;;;;;;;3.76;53.71;101036.72;4998144;28;20093;-90
2021/11/25 04:25:24;;;;;;;55.00;20.30;;;;;;;3.41;54.31;101027.56;5001952;28;20029;-91
2021/11/25 04:27:50;;;;;;;56.00;21.77;;;;;;;4.05;53.19;101036.47;4995514;28;20085;-90
2021/11/25 04:37:56;;;;;;;47.70;19.77;;;;;;;3.97;53.73;101022.75;5007769;28;20041;-90
2021/11/25 04:40:22;;;;;;;48.05;19.83;;;;;;;3.68;54.38;101025.63;4997920;28;20107;-92
2021/11/25 04:42:48;;;;;;;43.10;18.60;;;;;;;4.11;53.30;101022.59;5032502;28;20041;-94
2021/11/25 04:45:14;;;;;;;47.47;18.63;;;;;;;3.79;54.04;101021.19;5018445;28;20006;-91
2021/11/25 04:47:39;;;;;;;44.22;20.05;;;;;;;3.48;54.71;101018.88;5016649;28;20064;-93
2021/11/25 04:50:07;;;;;;;48.60;20.83;;;;;;;4.09;53.31;101014.00;5004400;28;20041;-93
2021/11/25 04:52:32;;;;;;;48.22;18.23;;;;;;;3.72;54.45;101006.63;5009391;28;20064;-93
2021/11/25 04:54:58;;;;;;;48.38;19.60;;;;;;;3.75;54.50;101004.00;5002391;28;20026;-94
2021/11/25 04:57:24;;;;;;;46.53;18.77;;;;;;;3.95;54.18;100996.91;5037733;28;20040;-92
2021/11/25 04:59:49;;;;;;;44.05;18.33;;;;;;;3.84;54.27;100990.97;5020508;28;20034;-93
2021/11/25 05:02:15;;;;;;;48.80;17.80;;;;;;;3.80;54.64;100991.88;5022585;28;20031;-93
2021/11/25 05:04:41;;;;;;;45.97;20.48;;;;;;;4.04;54.24;100990.78;5019546;28;20036;-93
2021/11/25 05:07:06;;;;;;;44.55;18.40;;;;;;;4.08;53.90;100991.59;5017752;28;20076;-93
2021/11/25 05:09:32;;;;;;;50.92;20.83;;;;;;;4.27;53.09;100972.38;5004023;28;20058;-93
2021/11/25 05:11:57;;;;;;;48.28;20.10;;;;;;;3.96;54.31;100970.19;5019584;28;20022;-93
2021/11/25 05:14:23;;;;;;;50.67;19.17;;;;;;;3.91;54.47;100969.34;5005076;28;20033;-94
2021/11/25 05:16:49;;;;;;;53.80;19.27;;;;;;;3.88;54.23;100960.78;5002092;28;20036;-92
2021/11/25 05:19:17;;;;;;;43.35;19.25;;;;;;;4.10;53.66;100953.66;5034135;28;20014;-93
2021/11/25 05:21:43;;;;;;;43.25;17.15;;;;;;;4.07;53.63;100951.06;5004181;28;20111;-94
2021/11/25 05:24:09;;;;;;;44.95;18.10;;;;;;;3.91;54.35;100948.66;5008957;28;20018;-93
2021/11/25 05:26:34;;;;;;;45.20;17.38;;;;;;;4.07;53.71;100951.06;5004331;28;20022;-92
2021/11/25 05:29:00;;;;;;;44.08;19.05;;;;;;;4.28;53.23;100958.59;5001973;28;20049;-93
2021/11/25 05:31:26;;;;;;;51.45;19.30;;;;;;;3.56;55.05;100947.31;5018721;28;20060;-94
2021/11/25 05:33:52;;;;;;;50.97;18.85;;;;;;;3.80;54.40;100960.84;5004760;28;20037;-92
2021/11/25 05:36:17;;;;;;;46.55;18.88;;;;;;;4.14;53.87;100955.28;5006528;28;20053;-93
2021/11/25 05:38:43;;;;;;;50.15;21.23;;;;;;;4.18;53.47;100949.22;4995606;28;20057;-91
2021/11/25 05:41:09;;;;;;;55.63;18.90;;;;;;;3.93;54.22;100943.47;4988608;28;20228;-91
2021/11/25 05:43:34;;;;;;;50.88;19.35;;;;;;;3.64;54.63;100938.63;5004937;28;20053;-89
2021/11/25 05:46:00;;;;;;;55.55;20.90;;;;;;;3.86;53.97;100932.34;5020490;28;20034;-89
2021/11/25 05:48:28;;;;;;;54.45;19.80;;;;;;;4.22;53.10;100937.97;5007758;28;20056;-91
2021/11/25 05:50:54;;;;;;;50.50;20.08;;;;;;;3.44;55.01;100942.25;5004102;28;20037;-91
2021/11/25 05:53:20;;;;;;;49.47;21.35;;;;;;;3.79;53.87;100934.16;5019576;28;20057;-91
2021/11/25 05:55:47;;;;;;;46.28;19.45;;;;;;;3.83;54.23;100934.09;4987486;28;20061;-90
2021/11/25 05:58:14;;;;;;;42.83;18.02;;;;;;;3.91;53.71;100927.97;4999959;28;20038;-90
2021/11/25 06:00:39;;;;;;;46.90;19.55;;;;;;;3.48;54.72;100941.34;4986887;28;20042;-91
2021/11/25 06:03:05;;;;;;;49.47;19.60;;;;;;;3.59;54.66;100936.94;4990299;28;20046;-92
2021/11/25 06:05:32;;;;;;;50.60;20.13;;;;;;;3.94;53.46;100943.47;4994138;28;20100;-90
2021/11/25 06:08:02;;;;;;;52.33;18.73;;;;;;;3.48;54.90;100932.75;4990096;28;20050;-91
2021/11/25 06:10:28;;;;;;;53.47;18.48;;;;;;;3.08;55.99;100936.50;5016792;28;20037;-94
2021/11/25 06:12:55;;;;;;;55.17;18.83;;;;;;;3.37;55.40;100935.44;4984601;28;20057;-91
2021/11/25 06:15:22;;;;;;;50.75;20.65;;;;;;;3.03;55.77;100935.69;5003295;28;20526;-91
2021/11/25 06:17:48;;;;;;;49.35;17.55;;;;;;;3.44;54.96;100929.31;4987645;28;20076;-90
2021/11/25 06:20:15;;;;;;;49.08;19.75;;;;;;;3.02;56.15;100926.19;5004824;28;20509;-92
2021/11/25 06:22:43;;;;;;;61.20;21.58;;;;;;;3.50;54.71;100924.09;4999791;28;20041;-92
2021/11/25 06:25:10;;;;;;;54.88;21.85;;;;;;;2.98;55.90;100921.97;4984217;28;20034;-91
2021/11/25 06:27:37;;;;;;;60.70;19.67;;;;;;;3.43;55.25;100927.63;4999084;28;20105;-90
2021/11/25 06:30:12;;;;;;;58.55;20.40;;;;;;;3.33;55.63;100913.91;4989045;28;20026;-90
2021/11/25 06:32:42;;;;;;;57.35;20.75;;;;;;;3.44;55.24;100923.31;5005960;28;20067;-90
2021/11/25 06:35:10;;;;;;;51.60;19.75;;;;;;;3.69;54.46;100927.34;5000733;28;20029;-92
2021/11/25 06:37:45;;;;;;;57.58;19.00;;;;;;;3.54;54.94;100920.63;4987952;28;20101;-91
2021/11/25 06:40:13;;;;;;;51.88;19.75;;;;;;;3.20;55.74;100917.44;5004507;28;20026;-90
2021/11/25 06:42:38;;;;;;;46.65;19.88;;;;;;;3.69;54.89;100908.41;4988281;28;20042;-91
2021/11/25 06:45:05;;;;;;;50.22;21.42;;;;;;;3.23;56.16;100906.25;5006879;28;20052;-92
2021/11/25 06:47:32;;;;;;;60.92;22.65;;;;;;;3.43;55.48;100899.22;5019526;28;20038;-90
2021/11/25 06:49:57;;;;;;;58.70;22.55;;;;;;;3.17;56.41;100899.41;5007697;28;20050;-91
2021/11/25 06:52:23;;;;;;;55.55;21.52;;;;;;;3.74;54.42;100907.50;4986991;28;20050;-89
2021/11/25 06:54:49;;;;;;;56.83;21.88;;;;;;;3.76;54.92;100902.28;5009200;28;20074;-89
2021/11/25 06:57:14;;;;;;;53.45;18.95;;;;;;;3.59;55.50;100905.91;4994295;28;20037;-91
2021/11/25 06:59:40;;;;;;;55.42;21.65;;;;;;;3.66;55.27;100900.69;4988693;28;20041;-89
2021/11/25 07:02:06;;;;;;;56.63;20.23;;;;;;;3.84;54.51;100894.47;4964932;28;20057;-91
2021/11/25 07:04:32;;;;;;;61.65;21.33;;;;;;;3.33;56.12;100900.16;5005475;28;20036;-91
2021/11/25 07:06:57;;;;;;;56.28;22.02;;;;;;;3.45;55.73;100897.47;5008695;28;20037;-91
2021/11/25 07:09:23;;;;;;;56.00;21.75;;;;;;;3.31;56.51;100902.75;5011796;28;20040;-91
2021/11/25 07:11:49;;;;;;;59.13;21.02;;;;;;;3.43;56.31;100899.22;5013436;28;20099;-92
2021/11/25 07:14:15;;;;;;;58.78;22.20;;;;;;;3.31;56.59;100883.81;5029034;28;20030;-92
2021/11/25 07:16:40;;;;;;;52.97;20.23;;;;;;;3.84;55.33;100886.69;4992628;28;20123;-90
2021/11/25 07:19:06;;;;;;;60.80;22.38;;;;;;;3.76;55.43;100897.13;4994637;28;20070;-90
2021/11/25 07:21:32;;;;;;;62.38;25.10;;;;;;;3.44;55.88;100892.31;5002570;28;20125;-91
2021/11/25 07:24:01;;;;;;;57.42;21.00;;;;;;;3.23;56.78;100890.75;5023216;28;20118;-89
2021/11/25 07:26:26;;;;;;;60.42;21.30;;;;;;;3.50;56.04;100884.50;4994359;28;20037;-91
2021/11/25 07:28:55;;;;;;;57.75;20.45;;;;;;;4.05;54.79;100885.56;4986607;28;20050;-90
2021/11/25 07:31:21;;;;;;;59.75;21.80;;;;;;;3.98;54.93;100887.38;4991455;28;20030;-89
2021/11/25 07:33:46;;;;;;;67.80;22.38;;;;;;;3.67;55.80;100892.06;4987129;28;20048;-89
2021/11/25 07:36:13;;;;;;;55.28;21.25;;;;;;;3.49;56.29;100890.53;5010713;28;20120;-89
2021/11/25 07:38:39;;;;;;;66.25;19.95;;;;;;;3.93;55.01;100879.69;5005046;28;20386;-90
2021/11/25 07:41:05;;;;;;;60.50;22.65;;;;;;;3.46;56.24;100883.66;5003715;28;20026;-89
2021/11/25 07:43:31;;;;;;;61.70;21.98;;;;;;;4.02;54.99;100868.38;4991028;28;20038;-90
2021/11/25 07:45:57;;;;;;;56.53;22.65;;;;;;;3.93;54.90;100866.75;4987522;28;20144;-89
2021/11/25 07:48:23;;;;;;;59.35;19.33;;;;;;;4.07;55.08;100870.91;4994095;28;20073;-90
2021/11/25 07:50:49;;;;;;;59.55;22.85;;;;;;;3.56;56.23;100872.38;5008246;28;20033;-89
2021/11/25 07:53:14;;;;;;;61.05;19.65;;;;;;;3.83;55.90;100865.16;5015551;28;20041;-87
2021/11/25 07:55:40;;;;;;;61.58;21.35;;;;;;;3.86;55.55;100872.88;5013261;28;20044;-90
2021/11/25 07:58:06;;;;;;;58.72;21.33;;;;;;;3.96;55.54;100871.03;5004683;28;20038;-91
2021/11/25 08:00:31;;;;;;;56.95;21.73;;;;;;;3.41;57.47;100875.09;4993399;28;20029;-89
2021/11/25 08:02:58;;;;;;;59.38;20.30;;;;;;;3.91;56.15;100865.91;5025426;28;20045;-88
2021/11/25 08:05:25;;;;;;;63.08;20.73;;;;;;;4.00;55.94;100865.78;4989483;28;20065;-91
2021/11/25 08:07:55;;;;;;;63.83;21.63;;;;;;;3.96;56.08;100864.16;5003179;28;20050;-91
2021/11/25 08:10:23;;;;;;;63.30;22.52;;;;;;;3.82;56.44;100866.03;5006963;28;20029;-91
2021/11/25 08:12:48;;;;;;;66.38;25.65;;;;;;;3.91;56.37;100860.75;5012787;28;20041;-91
2021/11/25 08:15:14;;;;;;;63.63;23.13;;;;;;;4.16;55.76;100865.59;4990516;28;20034;-89
2021/11/25 08:17:40;;;;;;;64.55;23.05;;;;;;;3.67;57.15;100867.09;4987644;28;20046;-89
2021/11/25 08:20:07;;;;;;;66.93;23.85;;;;;;;4.10;56.02;100860.53;4992656;28;20475;-92
2021/11/25 08:22:33;;;;;;;64.95;23.05;;;;;;;4.47;54.95;100857.41;4995786;28;20053;-89
2021/11/25 08:24:59;;;;;;;69.32;22.95;;;;;;;4.49;55.21;100869.44;4983459;28;20418;-90
2021/11/25 08:27:26;;;;;;;60.83;22.27;;;;;;;4.20;56.03;100862.09;5004834;28;20099;-91
2021/11/25 08:29:52;;;;;;;56.97;20.77;;;;;;;3.80;57.26;100872.94;4987404;28;20049;-90
2021/11/25 08:32:17;;;;;;;58.83;21.98;;;;;;;3.43;58.05;100873.38;4999615;28;20103;-89
2021/11/25 08:34:43;;;;;;;70.97;22.83;;;;;;;3.86;57.25;100867.72;4998812;28;20084;-88
2021/11/25 08:37:08;;;;;;;77.75;26.38;;;;;;;3.27;58.92;100872.63;4982846;28;20049;-89
2021/11/25 08:39:37;;;;;;;64.57;22.98;;;;;;;4.08;56.72;100875.22;4996654;28;20099;-88
2021/11/25 08:42:05;;;;;;;63.40;22.20;;;;;;;4.19;56.31;100866.41;4993399;28;20521;-88
2021/11/25 08:44:31;;;;;;;72.40;23.88;;;;;;;3.77;57.59;100867.81;4975303;28;20577;-90
2021/11/25 08:46:57;;;;;;;71.85;26.00;;;;;;;3.86;57.66;100859.09;4997870;28;20121;-91
2021/11/25 08:49:23;;;;;;;69.25;22.83;;;;;;;4.21;56.64;100853.47;4997053;28;20034;-87
2021/11/25 08:51:48;;;;;;;81.05;25.98;;;;;;;4.21;56.69;100862.09;4987505;28;20032;-90
2021/11/25 08:54:14;;;;;;;70.97;23.88;;;;;;;4.34;56.39;100860.19;4982784;28;20061;-90
2021/11/25 08:56:40;;;;;;;71.38;23.30;;;;;;;4.64;55.81;100868.38;4983570;28;20042;-89
2021/11/25 08:59:06;;;;;;;73.68;25.75;;;;;;;4.26;56.79;100867.19;4985197;28;20022;-89
2021/11/25 09:01:32;;;;;;;76.35;24.65;;;;;;;4.50;56.44;100867.69;4989525;28;20044;-90
2021/11/25 09:03:57;;;;;;;75.22;25.33;;;;;;;4.24;56.63;100876.72;5006713;28;20064;-91
2021/11/25 09:06:23;;;;;;;68.65;24.15;;;;;;;4.74;55.68;100869.06;5013500;28;20034;-88
2021/11/25 09:08:48;;;;;;;68.35;23.60;;;;;;;4.27;56.47;100858.53;5007333;28;20469;-87
2021/11/25 09:11:15;;;;;;;62.47;22.85;;;;;;;4.08;57.30;100864.88;5002634;28;20149;-89
2021/11/25 09:13:41;;;;;;;70.10;23.52;;;;;;;4.55;56.77;100858.16;5006184;28;20038;-88
2021/11/25 09:16:07;;;;;;;68.32;25.67;;;;;;;4.73;56.24;100857.88;4989718;28;20038;-89
2021/11/25 09:18:33;;;;;;;63.75;21.90;;;;;;;4.66;56.28;100866.63;4984295;28;20038;-90
2021/11/25 09:21:00;;;;;;;75.32;24.50;;;;;;;4.40;56.72;100865.25;4993312;28;20120;-87
2021/11/25 09:23:25;;;;;;;70.78;23.33;;;;;;;4.67;56.06;100860.53;5001109;28;21493;-88
2021/11/25 09:25:52;;;;;;;62.72;24.13;;;;;;;4.87;55.80;100859.38;4994783;28;20037;-91
2021/11/25 09:28:22;;;;;;;70.63;23.58;;;;;;;4.35;57.06;100856.72;5008166;28;20062;-89
2021/11/25 09:30:49;;;;;;;81.90;23.90;;;;;;;4.72;56.28;100858.75;5023483;28;20039;-88
2021/11/25 09:33:16;;;;;;;60.58;23.55;;;;;;;5.16;55.31;100861.50;5004167;28;20061;-91
2021/11/25 09:35:42;;;;;;;70.30;22.88;;;;;;;4.82;56.38;100862.03;5011026;28;20038;-90
2021/11/25 09:38:09;;;;;;;70.68;22.67;;;;;;;4.10;58.15;100860.53;5007853;28;20041;-88
2021/11/25 09:40:36;;;;;;;60.22;22.42;;;;;;;4.53;57.36;100854.72;5008176;28;20049;-88
2021/11/25 09:43:05;;;;;;;65.05;22.55;;;;;;;4.71;56.59;100854.44;5005802;28;20087;-92
2021/11/25 09:45:36;;;;;;;64.22;22.73;;;;;;;4.63;57.00;100846.81;4989064;28;20033;-89
2021/11/25 09:48:08;;;;;;;62.78;22.70;;;;;;;4.95;56.35;100857.56;4983874;28;20044;-88
2021/11/25 09:50:39;;;;;;;70.50;24.65;;;;;;;5.16;55.82;100846.81;5003023;28;20029;-90
2021/11/25 09:53:10;;;;;;;63.53;22.88;;;;;;;4.88;56.44;100846.44;4989498;28;20049;-87
2021/11/25 09:55:39;;;;;;;61.83;24.38;;;;;;;4.96;56.61;100844.56;5003802;28;20125;-90
2021/11/25 09:58:05;;;;;;;65.13;22.55;;;;;;;5.28;55.76;100839.69;4987759;28;20038;-89
2021/11/25 10:00:33;;;;;;;60.55;23.83;;;;;;;5.19;56.34;100844.19;5017240;28;20072;-88
2021/11/25 10:03:00;;;;;;;63.83;23.33;;;;;;;4.80;57.45;100841.34;4991573;28;20041;-90
2021/11/25 10:05:27;;;;;;;56.80;22.02;;;;;;;5.50;56.01;100830.63;5003251;28;20044;-90
2021/11/25 10:07:52;;;;;;;54.72;21.20;;;;;;;5.57;55.56;100826.16;4984147;28;20127;-89
2021/11/25 10:10:30;;;;;;;67.65;22.75;;;;;;;5.91;55.11;100815.97;5016692;28;20026;-89
2021/11/25 10:13:06;;;;;;;71.28;24.40;;;;;;;5.40;56.14;100826.50;5012471;28;20041;-90
2021/11/25 10:15:35;;;;;;;59.17;19.95;;;;;;;5.71;55.21;100816.38;5004428;28;20150;-89
2021/11/25 10:18:10;;;;;;;52.58;20.88;;;;;;;5.65;55.81;100813.91;4985295;28;20033;-90
2021/11/25 10:20:38;;;;;;;66.90;22.15;;;;;;;6.12;54.51;100813.78;5021248;28;20441;-89
2021/11/25 10:23:04;;;;;;;62.38;22.63;;;;;;;5.80;55.38;100810.16;4988433;28;20038;-90
2021/11/25 10:26:16;;;;;;;64.10;20.35;;;;;;;5.98;55.38;100811.50;5007054;28;20046;-88
2021/11/25 10:28:54;;;;;;;;;;;;;;;5.57;55.51;100805.44;4982897;28;20045;-89
2021/11/25 10:31:22;;;;;;;55.40;18.95;;;;;;;5.72;55.69;100802.53;5018563;28;19985;-90
2021/11/25 10:33:59;;;;;;;55.22;20.48;;;;;;;5.61;56.14;100813.16;5011166;28;20711;-90
2021/11/25 10:36:39;;;;;;;60.88;18.73;;;;;;;6.01;55.36;100799.31;5000464;28;20038;-90
2021/11/25 10:39:15;;;;;;;52.47;19.38;;;;;;;5.78;56.02;100806.75;4984105;28;20048;-89
2021/11/25 10:41:46;;;;;;;52.95;20.15;;;;;;;6.35;55.20;100800.31;4982987;28;20025;-89
2021/11/25 10:44:19;;;;;;;51.83;18.52;;;;;;;6.78;54.43;100794.94;5001396;28;20093;-90
2021/11/25 10:46:55;;;;;;;56.47;20.02;;;;;;;6.38;54.18;100790.72;5003654;28;20478;-89
2021/11/25 10:49:43;;;;;;;52.75;18.42;;;;;;;6.20;55.09;100785.94;5006921;28;20032;-89
2021/11/25 10:52:17;;;;;;;53.13;19.83;;;;;;;6.73;53.73;100788.13;5019388;28;20509;-89
2021/11/25 10:54:54;;;;;;;49.83;17.50;;;;;;;6.64;54.27;100792.69;5004301;28;20037;-89
2021/11/25 10:57:22;;;;;;;49.28;18.00;;;;;;;7.08;53.55;100789.81;5001152;28;20041;-89
2021/11/25 10:59:51;;;;;;;46.63;18.60;;;;;;;6.70;53.93;100782.13;5006730;28;20040;-90
2021/11/25 11:02:28;;;;;;;47.00;18.38;;;;;;;6.47;53.79;100781.84;4985508;28;20414;-91
2021/11/25 11:04:55;;;;;;;54.13;20.30;;;;;;;6.91;53.02;100791.13;5001746;28;20125;-90
2021/11/25 11:07:30;;;;;;;47.35;18.20;;;;;;;6.00;55.46;100784.63;4985279;28;20233;-90
2021/11/25 11:09:57;;;;;;;52.42;17.08;;;;;;;6.46;54.49;100783.59;4987902;28;20048;-90
2021/11/25 11:12:33;;;;;;;42.55;17.98;;;;;;;6.77;54.05;100781.97;4996355;28;20049;-91
2021/11/25 11:15:13;;;;;;;47.50;18.70;;;;;;;6.73;53.84;100781.22;4986903;28;20030;-90
2021/11/25 11:18:00;;;;;;;52.20;17.98;;;;;;;6.66;54.37;100790.03;4986112;28;20081;-91
2021/11/25 11:20:49;;;;;;;52.90;17.00;;;;;;;6.73;54.30;100781.22;4989939;28;20038;-90
2021/11/25 11:23:22;;;;;;;57.47;19.02;;;;;;;7.21;53.62;100777.34;4999340;28;20065;-90
2021/11/25 11:25:50;;;;;;;53.85;17.98;;;;;;;6.82;54.70;100770.59;5007402;28;20038;-90